Time;durP1;ratioP1;P1;durP2;ratioP2;P2;SDS_P1;SDS_P2;PMS_P1;PMS_P2;Temp;Humidity;BMP_temperature;BMP_pressure;BME280_temperature;BME280_humidity;BME280_pressure;Samples;Min_cycle;Max_cycle;Signal;HPM_P1;HPM_P2
2023/12/08 00:01:14;;;;;;;17.88;9.18;;;2.60;99.90;;;;;;5070083;28;19926;-70
2023/12/08 00:03:43;;;;;;;16.65;10.15;;;2.50;99.90;;;;;;5071589;28;20048;-70
2023/12/08 00:06:09;;;;;;;14.07;8.52;;;2.50;99.90;;;;;;5071019;28;20085;-70
2023/12/08 00:08:35;;;;;;;15.32;9.02;;;2.50;99.90;;;;;;5071768;28;20055;-70
2023/12/08 00:11:01;;;;;;;19.88;9.93;;;2.50;99.90;;;;;;5071319;28;20136;-70
2023/12/08 00:13:27;;;;;;;17.75;9.73;;;2.50;99.90;;;;;;5072307;28;20123;-70
2023/12/08 00:15:52;;;;;;;;;;;2.50;99.90;;;;;;5076278;28;20044;-70
2023/12/08 00:18:18;;;;;;;16.40;9.02;;;2.40;99.90;;;;;;5093977;28;19924;-70
2023/12/08 00:20:46;;;;;;;;;;;2.40;99.90;;;;;;5093635;28;20039;-70
2023/12/08 00:23:12;;;;;;;15.70;8.48;;;2.40;99.90;;;;;;5095158;28;20272;-70
2023/12/08 00:25:38;;;;;;;18.50;10.10;;;2.40;99.90;;;;;;5093578;28;20055;-70
2023/12/08 00:28:03;;;;;;;16.58;8.63;;;2.50;99.90;;;;;;5074462;28;20468;-70
2023/12/08 00:30:29;;;;;;;17.73;8.90;;;2.40;99.90;;;;;;5073957;28;20051;-70
2023/12/08 00:32:55;;;;;;;;;;;2.40;99.90;;;;;;5074460;28;20048;-70
2023/12/08 00:35:22;;;;;;;15.27;8.20;;;2.40;99.90;;;;;;5072147;28;19920;-70
2023/12/08 00:37:48;;;;;;;17.48;9.88;;;2.40;99.90;;;;;;5074607;28;20495;-71
2023/12/08 00:40:17;;;;;;;16.95;9.45;;;2.30;99.90;;;;;;5090872;28;20044;-70
2023/12/08 00:42:45;;;;;;;16.77;9.32;;;2.30;99.90;;;;;;5080415;28;20102;-70
2023/12/08 00:45:11;;;;;;;15.18;8.50;;;2.30;99.90;;;;;;5073480;28;20444;-70
2023/12/08 00:47:36;;;;;;;17.20;9.25;;;2.40;99.90;;;;;;5073448;28;20165;-70
2023/12/08 00:50:02;;;;;;;;;;;2.70;99.90;;;;;;5074090;28;20082;-70
2023/12/08 00:52:28;;;;;;;12.95;7.65;;;2.40;99.90;;;;;;5073042;28;20414;-70
2023/12/08 00:54:53;;;;;;;15.52;8.98;;;2.40;99.90;;;;;;5082280;28;20050;-70
2023/12/08 00:57:21;;;;;;;15.10;8.70;;;2.30;99.90;;;;;;5081799;28;20073;-70
2023/12/08 00:59:47;;;;;;;14.23;7.60;;;2.20;99.90;;;;;;5088803;28;20057;-70
2023/12/08 01:02:13;;;;;;;16.50;9.57;;;2.30;99.90;;;;;;5092033;28;20048;-71
2023/12/08 01:04:38;;;;;;;14.48;8.68;;;2.30;99.90;;;;;;5092652;28;20036;-70
2023/12/08 01:07:04;;;;;;;16.75;9.55;;;2.40;99.90;;;;;;5092296;28;20047;-70
2023/12/08 01:09:29;;;;;;;;;;;2.30;99.90;;;;;;5093443;28;20177;-70
2023/12/08 01:11:55;;;;;;;14.40;8.20;;;2.50;99.90;;;;;;5092737;28;19923;-70
2023/12/08 01:14:21;;;;;;;17.10;8.90;;;2.40;99.90;;;;;;5092217;28;20380;-70
2023/12/08 01:16:49;;;;;;;14.18;8.27;;;2.30;99.90;;;;;;5091632;28;20407;-70
2023/12/08 01:19:16;;;;;;;15.95;8.70;;;2.30;99.90;;;;;;5073095;28;20140;-70
2023/12/08 01:21:41;;;;;;;15.27;8.68;;;2.30;99.90;;;;;;5073355;28;20036;-70
2023/12/08 01:24:08;;;;;;;15.80;8.80;;;2.40;99.90;;;;;;5079933;28;20043;-70
2023/12/08 01:26:34;;;;;;;15.80;9.45;;;2.30;99.90;;;;;;5092307;28;20130;-71
2023/12/08 01:28:59;;;;;;;13.70;8.40;;;2.40;99.90;;;;;;5092211;28;20085;-70
2023/12/08 01:31:25;;;;;;;16.25;8.73;;;2.40;99.90;;;;;;5091713;28;20047;-70
2023/12/08 01:33:51;;;;;;;12.93;8.40;;;2.40;99.90;;;;;;5090341;28;20066;-70
2023/12/08 01:36:16;;;;;;;;;;;2.40;99.90;;;;;;5093809;28;20480;-70
2023/12/08 01:38:45;;;;;;;15.15;9.25;;;2.40;99.90;;;;;;5092669;28;19920;-70
2023/12/08 01:41:17;;;;;;;16.05;8.85;;;2.40;99.90;;;;;;5091716;28;20065;-70
2023/12/08 01:43:43;;;;;;;15.85;8.50;;;2.40;99.90;;;;;;5108929;28;20044;-70
2023/12/08 01:46:14;;;;;;;13.65;7.22;;;2.30;99.90;;;;;;5090569;28;20118;-70
2023/12/08 01:48:41;;;;;;;16.45;9.40;;;2.30;99.90;;;;;;5092195;28;20471;-70
2023/12/08 01:51:08;;;;;;;16.88;9.18;;;2.30;99.90;;;;;;5091892;28;20491;-70
2023/12/08 01:53:34;;;;;;;16.50;8.05;;;2.30;99.90;;;;;;5091307;28;20123;-70
2023/12/08 01:56:00;;;;;;;13.98;8.05;;;2.30;99.90;;;;;;5092778;28;20616;-70
2023/12/08 01:58:26;;;;;;;;;;;2.30;99.90;;;;;;5092774;28;20059;-70
2023/12/08 02:00:55;;;;;;;15.20;8.75;;;2.30;99.90;;;;;;5091368;28;19919;-70
2023/12/08 02:03:22;;;;;;;16.20;9.50;;;2.30;99.90;;;;;;5079166;28;20388;-70
2023/12/08 02:05:51;;;;;;;15.88;8.68;;;2.30;99.90;;;;;;5084810;28;20598;-70
2023/12/08 02:08:18;;;;;;;16.17;8.75;;;2.30;99.90;;;;;;5084792;28;20055;-70
2023/12/08 02:10:43;;;;;;;14.93;8.88;;;2.30;99.90;;;;;;5092003;28;20051;-71
2023/12/08 02:13:11;;;;;;;14.98;9.38;;;2.30;99.90;;;;;;5092046;28;20123;-70
2023/12/08 02:15:38;;;;;;;14.80;8.60;;;2.30;99.90;;;;;;5091737;28;20051;-70
2023/12/08 02:18:08;;;;;;;15.30;8.38;;;2.30;99.90;;;;;;5076375;28;20044;-70
2023/12/08 02:20:34;;;;;;;17.40;10.10;;;2.30;99.90;;;;;;5070987;28;20455;-70
2023/12/08 02:23:05;;;;;;;15.05;8.68;;;2.30;99.90;;;;;;5072235;28;20068;-70
2023/12/08 02:25:32;;;;;;;16.88;9.88;;;2.30;99.90;;;;;;5071620;28;20036;-70
2023/12/08 02:27:59;;;;;;;13.88;8.82;;;2.30;99.90;;;;;;5071621;28;20036;-70
2023/12/08 02:30:25;;;;;;;18.13;9.23;;;2.30;99.90;;;;;;5073407;28;20066;-70
2023/12/08 02:32:59;;;;;;;15.70;8.35;;;2.30;99.90;;;;;;5071643;28;20045;-70
2023/12/08 02:35:25;;;;;;;16.60;8.65;;;2.30;99.90;;;;;;5070304;28;20056;-70
2023/12/08 02:37:57;;;;;;;13.55;8.68;;;2.30;99.90;;;;;;5071175;28;20071;-70
2023/12/08 02:40:25;;;;;;;12.63;7.88;;;2.40;99.90;;;;;;5075770;28;20432;-70
2023/12/08 02:42:54;;;;;;;16.85;9.60;;;2.30;99.90;;;;;;5090387;28;20115;-70
2023/12/08 02:45:19;;;;;;;15.52;8.57;;;2.30;99.90;;;;;;5091145;28;20360;-70
2023/12/08 02:47:45;;;;;;;18.95;9.40;;;2.30;99.90;;;;;;5090804;28;20078;-70
2023/12/08 02:50:11;;;;;;;;;;;2.20;99.90;;;;;;5091036;28;20036;-70
2023/12/08 02:52:36;;;;;;;14.82;9.23;;;2.20;99.90;;;;;;5090757;28;20253;-70
2023/12/08 02:55:02;;;;;;;20.55;10.27;;;2.20;99.90;;;;;;5090224;28;20411;-70
2023/12/08 02:57:28;;;;;;;16.27;9.48;;;2.30;99.90;;;;;;5091085;28;20431;-70
2023/12/08 02:59:53;;;;;;;15.98;9.02;;;2.20;99.90;;;;;;5104707;28;20411;-69
2023/12/08 03:02:19;;;;;;;14.40;9.25;;;2.20;99.90;;;;;;5069762;28;20052;-71
2023/12/08 03:04:44;;;;;;;;;;;2.20;99.90;;;;;;5071342;28;20052;-70
2023/12/08 03:07:11;;;;;;;15.18;8.65;;;2.30;99.90;;;;;;5070857;28;20326;-70
2023/12/08 03:09:37;;;;;;;16.25;8.35;;;2.30;99.90;;;;;;5073385;28;20075;-70
2023/12/08 03:12:03;;;;;;;16.67;9.45;;;2.30;99.90;;;;;;5071681;28;20044;-70
2023/12/08 03:14:29;;;;;;;16.20;9.43;;;2.30;99.90;;;;;;5071098;28;20048;-70
2023/12/08 03:16:54;;;;;;;;;;;2.20;99.90;;;;;;5070290;28;20488;-70
2023/12/08 03:19:20;;;;;;;16.90;10.05;;;2.30;99.90;;;;;;5074512;28;20364;-70
2023/12/08 03:21:45;;;;;;;;;;;2.20;99.90;;;;;;5074861;28;20049;-70
2023/12/08 03:24:11;;;;;;;16.15;9.30;;;2.30;99.90;;;;;;5073356;28;19921;-70
2023/12/08 03:26:37;;;;;;;16.23;10.68;;;2.30;99.90;;;;;;5074156;28;20044;-70
2023/12/08 03:29:03;;;;;;;22.67;10.88;;;2.30;99.90;;;;;;5074289;28;20075;-70
2023/12/08 03:31:35;;;;;;;16.25;8.75;;;2.30;99.90;;;;;;5073630;28;20484;-70
2023/12/08 03:34:00;;;;;;;21.00;10.02;;;2.20;99.90;;;;;;5074965;28;20409;-70
2023/12/08 03:36:26;;;;;;;17.00;9.98;;;2.20;99.90;;;;;;5074073;28;20044;-70
2023/12/08 03:38:51;;;;;;;;;;;2.10;99.90;;;;;;5079170;28;20086;-70
2023/12/08 03:41:17;;;;;;;20.02;9.80;;;2.10;99.90;;;;;;5095608;28;20359;-70
2023/12/08 03:43:44;;;;;;;18.10;10.10;;;2.20;99.90;;;;;;5094150;28;20055;-70
2023/12/08 03:46:10;;;;;;;20.83;9.82;;;2.10;99.90;;;;;;5094484;28;20054;-70
2023/12/08 03:48:38;;;;;;;17.65;10.45;;;2.10;99.90;;;;;;5077947;28;20518;-70
2023/12/08 03:51:05;;;;;;;18.55;10.45;;;2.10;99.90;;;;;;5072932;28;20044;-70
2023/12/08 03:53:33;;;;;;;16.50;9.80;;;2.10;99.90;;;;;;5075030;28;20045;-70
2023/12/08 03:55:59;;;;;;;16.08;8.07;;;2.10;99.90;;;;;;5073753;28;20107;-70
2023/12/08 03:58:27;;;;;;;17.33;10.07;;;2.10;99.90;;;;;;5074424;28;20059;-70
2023/12/08 04:00:52;;;;;;;19.13;10.77;;;2.10;99.90;;;;;;5073737;28;20381;-70
2023/12/08 04:03:18;;;;;;;22.90;11.30;;;2.20;99.90;;;;;;5074498;28;20047;-70
2023/12/08 04:05:44;;;;;;;;;;;2.10;99.90;;;;;;5073621;28;20070;-70
2023/12/08 04:08:10;;;;;;;16.50;9.65;;;2.10;99.90;;;;;;5074432;28;19921;-70
2023/12/08 04:10:35;;;;;;;19.13;10.38;;;2.10;99.90;;;;;;5073687;28;20044;-70
2023/12/08 04:13:01;;;;;;;21.10;11.52;;;2.00;99.90;;;;;;5072605;28;20040;-70
2023/12/08 04:15:26;;;;;;;;;;;2.00;99.90;;;;;;5074139;28;20055;-70
2023/12/08 04:17:52;;;;;;;23.85;11.40;;;1.90;99.90;;;;;;5089567;28;19920;-70
2023/12/08 04:20:18;;;;;;;22.33;10.77;;;1.90;99.90;;;;;;5092902;28;20401;-70
2023/12/08 04:22:46;;;;;;;20.42;11.55;;;1.80;99.90;;;;;;5094748;28;20044;-70
2023/12/08 04:25:13;;;;;;;21.05;11.00;;;1.80;99.90;;;;;;5093172;28;20082;-70
2023/12/08 04:27:39;;;;;;;21.92;11.85;;;1.80;99.90;;;;;;5094323;28;20044;-70
2023/12/08 04:30:05;;;;;;;18.90;11.30;;;1.70;99.90;;;;;;5093615;28;20044;-70
2023/12/08 04:32:32;;;;;;;21.83;11.70;;;1.70;99.90;;;;;;5092786;28;20426;-70
2023/12/08 04:34:58;;;;;;;21.23;11.55;;;1.70;99.90;;;;;;5092438;28;20052;-70
2023/12/08 04:37:23;;;;;;;22.92;11.95;;;1.60;99.90;;;;;;5092958;28;20411;-70
2023/12/08 04:39:49;;;;;;;22.70;12.75;;;1.60;99.90;;;;;;5077638;28;20068;-70
2023/12/08 04:42:15;;;;;;;21.83;10.80;;;1.60;99.90;;;;;;5072079;28;20052;-70
2023/12/08 04:44:42;;;;;;;21.30;12.15;;;1.60;99.90;;;;;;5074187;28;20067;-70
2023/12/08 04:47:10;;;;;;;20.35;11.48;;;1.60;99.90;;;;;;5072676;28;20488;-70
2023/12/08 04:49:36;;;;;;;20.65;11.32;;;1.50;99.90;;;;;;5072419;28;20048;-70
2023/12/08 04:52:02;;;;;;;23.23;12.43;;;1.90;99.90;;;;;;5072657;28;20045;-70
2023/12/08 04:54:28;;;;;;;23.05;12.27;;;1.50;99.90;;;;;;5081964;28;20056;-70
2023/12/08 04:56:54;;;;;;;21.33;11.95;;;1.50;99.90;;;;;;5081084;28;20051;-70
2023/12/08 04:59:19;;;;;;;24.83;12.75;;;1.60;99.90;;;;;;5072327;28;20043;-70
2023/12/08 05:01:51;;;;;;;23.13;13.30;;;1.50;99.90;;;;;;5072105;28;20053;-70
2023/12/08 05:04:21;;;;;;;22.08;12.10;;;1.60;99.90;;;;;;5072544;28;20131;-70
2023/12/08 05:06:47;;;;;;;23.95;12.80;;;1.60;99.90;;;;;;5090221;28;20054;-70
2023/12/08 05:09:12;;;;;;;23.05;13.07;;;1.50;99.90;;;;;;5091611;28;20040;-70
2023/12/08 05:11:38;;;;;;;26.98;13.40;;;1.50;99.90;;;;;;5092984;28;20051;-71
2023/12/08 05:14:04;;;;;;;;;;;1.50;99.90;;;;;;5092709;28;20195;-70
2023/12/08 05:16:30;;;;;;;21.20;12.10;;;1.50;99.90;;;;;;5085624;28;19920;-70
2023/12/08 05:18:56;;;;;;;26.52;13.20;;;1.40;99.90;;;;;;5072385;28;20554;-71
2023/12/08 05:21:21;;;;;;;23.50;13.00;;;1.40;99.90;;;;;;5072140;28;20051;-70
2023/12/08 05:23:48;;;;;;;25.35;13.30;;;1.30;99.90;;;;;;5071598;28;20559;-70
2023/12/08 05:26:13;;;;;;;21.15;12.63;;;1.30;99.90;;;;;;5072915;28;20486;-70
2023/12/08 05:28:39;;;;;;;27.10;14.02;;;1.30;99.90;;;;;;5072098;28;20052;-70
2023/12/08 05:31:05;;;;;;;24.30;13.27;;;1.40;99.90;;;;;;5072165;28;20047;-70
2023/12/08 05:33:31;;;;;;;25.30;14.18;;;1.40;99.90;;;;;;5092057;28;20473;-70
2023/12/08 05:35:56;;;;;;;27.42;14.80;;;1.30;99.90;;;;;;5072005;28;20139;-70
2023/12/08 05:38:22;;;;;;;22.52;12.63;;;2.60;99.90;;;;;;5071071;28;20479;-70
2023/12/08 05:40:48;;;;;;;28.85;14.32;;;1.30;99.90;;;;;;5073093;28;20060;-71
2023/12/08 05:43:14;;;;;;;24.73;13.10;;;1.70;99.90;;;;;;5072648;28;20503;-71
2023/12/08 05:45:39;;;;;;;;;;;1.40;99.90;;;;;;5071559;28;20086;-71
2023/12/08 05:48:05;;;;;;;28.10;12.90;;;1.30;99.90;;;;;;5088439;28;20004;-69
2023/12/08 05:50:31;;;;;;;;;;;1.20;99.90;;;;;;5073073;28;20045;-69
2023/12/08 05:52:59;;;;;;;26.50;13.55;;;1.80;99.90;;;;;;5071610;28;19924;-69
2023/12/08 05:55:28;;;;;;;26.30;12.48;;;1.20;99.90;;;;;;5078183;28;20076;-69
2023/12/08 05:57:53;;;;;;;24.73;14.38;;;1.10;99.90;;;;;;5092201;28;20105;-69
2023/12/08 06:00:20;;;;;;;24.73;13.25;;;1.10;99.90;;;;;;5092697;28;20036;-69
2023/12/08 06:02:46;;;;;;;24.13;13.57;;;1.20;99.90;;;;;;5091744;28;20056;-69
2023/12/08 06:05:13;;;;;;;29.40;14.57;;;1.50;99.90;;;;;;5090646;28;20440;-69
2023/12/08 06:07:39;;;;;;;27.55;13.45;;;1.10;99.90;;;;;;5091644;28;20052;-68
2023/12/08 06:10:06;;;;;;;22.95;13.13;;;1.20;99.90;;;;;;5091085;28;20055;-69
2023/12/08 06:12:31;;;;;;;25.25;12.90;;;1.20;99.90;;;;;;5090765;28;20036;-70
2023/12/08 06:15:00;;;;;;;26.58;13.85;;;1.30;99.90;;;;;;5091545;28;20048;-69
2023/12/08 06:17:29;;;;;;;26.33;13.82;;;1.30;99.90;;;;;;5093053;28;20047;-69
2023/12/08 06:19:56;;;;;;;25.02;12.63;;;1.30;99.90;;;;;;5092159;28;20043;-69
2023/12/08 06:22:21;;;;;;;25.52;13.60;;;1.30;99.90;;;;;;5091486;28;20091;-68
2023/12/08 06:24:50;;;;;;;26.95;13.85;;;1.30;99.90;;;;;;5106374;28;20036;-90
2023/12/08 06:27:15;;;;;;;25.75;12.57;;;1.30;99.90;;;;;;5090793;28;20380;-71
2023/12/08 06:29:41;;;;;;;25.60;14.00;;;1.30;99.90;;;;;;5092335;28;20032;-73
2023/12/08 06:32:07;;;;;;;27.55;14.57;;;1.30;99.90;;;;;;5091315;28;20050;-74
2023/12/08 06:34:33;;;;;;;25.83;13.93;;;1.30;99.90;;;;;;5091880;28;20380;-72
2023/12/08 06:36:59;;;;;;;24.25;12.45;;;1.30;99.90;;;;;;5090330;28;20044;-70
2023/12/08 06:39:24;;;;;;;22.83;13.40;;;1.30;99.90;;;;;;5070579;28;20473;-71
2023/12/08 06:41:50;;;;;;;27.30;13.60;;;1.40;99.90;;;;;;5070678;28;20441;-71
2023/12/08 06:44:16;;;;;;;22.38;12.75;;;1.40;99.90;;;;;;5071318;28;20044;-70
2023/12/08 06:46:44;;;;;;;27.63;13.07;;;1.40;99.90;;;;;;5068376;28;20127;-74
2023/12/08 06:49:10;;;;;;;25.08;13.50;;;1.40;99.90;;;;;;5069408;28;20572;-70
2023/12/08 06:51:36;;;;;;;26.92;14.23;;;1.50;99.90;;;;;;5070760;28;20468;-73
2023/12/08 06:54:03;;;;;;;31.38;15.35;;;1.40;99.90;;;;;;5052851;28;20092;-71
2023/12/08 06:56:29;;;;;;;23.80;12.63;;;1.40;99.90;;;;;;5054528;28;20045;-71
2023/12/08 06:58:57;;;;;;;28.38;14.20;;;1.40;99.90;;;;;;5054544;28;20408;-71
2023/12/08 07:01:23;;;;;;;24.98;13.23;;;2.40;99.90;;;;;;5067156;28;20041;-71
2023/12/08 07:03:49;;;;;;;26.30;13.50;;;1.30;99.90;;;;;;5074429;28;20135;-71
2023/12/08 07:06:14;;;;;;;26.88;14.75;;;1.30;99.90;;;;;;5074530;28;20143;-71
2023/12/08 07:08:40;;;;;;;27.65;16.08;;;1.40;99.90;;;;;;5074059;28;20051;-71
2023/12/08 07:11:12;;;;;;;27.90;14.00;;;1.30;99.90;;;;;;5073876;28;20081;-70
2023/12/08 07:13:37;;;;;;;26.67;14.27;;;1.30;99.90;;;;;;5074139;28;20089;-70
2023/12/08 07:16:05;;;;;;;25.85;13.23;;;1.30;99.90;;;;;;5081062;28;20044;-71
2023/12/08 07:18:31;;;;;;;26.38;14.32;;;1.30;99.90;;;;;;5094796;28;20498;-71
2023/12/08 07:20:56;;;;;;;23.77;13.90;;;1.40;99.90;;;;;;5095888;28;20052;-70
2023/12/08 07:23:22;;;;;;;;;;;1.30;99.90;;;;;;5079085;28;20131;-71
2023/12/08 07:25:50;;;;;;;26.17;13.57;;;1.40;99.90;;;;;;5074328;28;19925;-70
2023/12/08 07:28:16;;;;;;;29.30;14.20;;;1.40;99.90;;;;;;5074062;28;20052;-71
2023/12/08 07:30:42;;;;;;;27.73;13.05;;;1.40;99.90;;;;;;5076536;28;20047;-70
2023/12/08 07:33:08;;;;;;;;;;;1.50;99.90;;;;;;5074232;28;20476;-72
2023/12/08 07:35:33;;;;;;;28.77;14.80;;;1.40;99.90;;;;;;5073838;28;19920;-70
2023/12/08 07:37:59;;;;;;;26.05;13.65;;;1.40;99.90;;;;;;5072909;28;20055;-71
2023/12/08 07:40:25;;;;;;;27.40;13.88;;;3.00;99.90;;;;;;5073736;28;20070;-72
2023/12/08 07:42:51;;;;;;;25.95;13.07;;;2.20;99.90;;;;;;5073337;28;20045;-70
2023/12/08 07:45:16;;;;;;;;;;;1.40;99.90;;;;;;5074514;28;20506;-74
2023/12/08 07:47:42;;;;;;;24.63;13.48;;;1.50;99.90;;;;;;5094545;28;19927;-74
2023/12/08 07:50:07;;;;;;;27.98;14.43;;;1.40;99.90;;;;;;5081175;28;20041;-72
2023/12/08 07:52:38;;;;;;;26.90;13.55;;;1.40;99.90;;;;;;5106877;28;20042;-72
2023/12/08 07:55:05;;;;;;;27.77;15.18;;;1.40;99.90;;;;;;5093282;28;20044;-72
2023/12/08 07:57:30;;;;;;;28.58;15.10;;;1.40;99.90;;;;;;5085332;28;20082;-72
2023/12/08 07:59:56;;;;;;;34.03;16.70;;;1.40;99.90;;;;;;5074440;28;20079;-70
2023/12/08 08:02:22;;;;;;;34.15;15.85;;;1.40;99.90;;;;;;5075515;28;20134;-70
2023/12/08 08:04:47;;;;;;;23.77;13.40;;;1.40;99.90;;;;;;5071158;28;20082;-71
2023/12/08 08:07:13;;;;;;;26.55;14.55;;;1.30;99.90;;;;;;5070839;28;20112;-69
2023/12/08 08:09:38;;;;;;;29.55;15.38;;;1.40;99.90;;;;;;5070297;28;20037;-69
2023/12/08 08:12:07;;;;;;;;;;;1.50;99.90;;;;;;5069133;28;20105;-68
2023/12/08 08:14:36;;;;;;;30.60;15.40;;;1.80;99.90;;;;;;5070626;28;19920;-69
2023/12/08 08:17:02;;;;;;;31.30;16.70;;;1.40;99.90;;;;;;5069840;28;20048;-69
2023/12/08 08:19:30;;;;;;;30.48;16.17;;;1.40;99.90;;;;;;5069881;28;20052;-70
2023/12/08 08:21:56;;;;;;;26.20;14.25;;;1.40;99.90;;;;;;5071437;28;20450;-69
2023/12/08 08:24:21;;;;;;;26.95;14.63;;;1.50;99.90;;;;;;5068635;28;20041;-70
2023/12/08 08:26:47;;;;;;;;;;;1.60;99.90;;;;;;5071053;28;20044;-70
2023/12/08 08:29:13;;;;;;;28.63;14.88;;;1.50;99.90;;;;;;5068725;28;19921;-70
2023/12/08 08:31:39;;;;;;;26.30;14.57;;;1.50;99.90;;;;;;5073048;28;20040;-70
2023/12/08 08:34:05;;;;;;;30.45;14.88;;;1.50;99.90;;;;;;5070547;28;20052;-71
2023/12/08 08:36:31;;;;;;;30.05;14.52;;;1.50;99.90;;;;;;5073268;28;20048;-71
2023/12/08 08:38:57;;;;;;;34.35;16.48;;;1.70;99.90;;;;;;5072026;28;20131;-70
2023/12/08 08:41:23;;;;;;;26.63;14.90;;;1.50;99.90;;;;;;5072171;28;20143;-71
2023/12/08 08:43:50;;;;;;;;;;;1.50;99.90;;;;;;5072195;28;20044;-71
2023/12/08 08:46:21;;;;;;;29.55;15.18;;;1.60;99.90;;;;;;5070380;28;20010;-71
2023/12/08 08:48:47;;;;;;;27.70;15.27;;;1.90;99.90;;;;;;5071455;28;20140;-71
2023/12/08 08:51:14;;;;;;;31.08;15.50;;;1.50;99.90;;;;;;5072700;28;20532;-70
2023/12/08 08:53:40;;;;;;;30.55;15.88;;;1.50;99.90;;;;;;5071282;28;20119;-71
2023/12/08 08:56:08;;;;;;;31.05;15.45;;;1.50;99.90;;;;;;5071476;28;20131;-72
2023/12/08 08:58:34;;;;;;;31.02;15.85;;;1.40;99.90;;;;;;5071402;28;20139;-72
2023/12/08 09:01:00;;;;;;;28.10;15.55;;;1.40;99.90;;;;;;5070448;28;20119;-71
2023/12/08 09:03:25;;;;;;;30.23;16.05;;;1.40;99.90;;;;;;5071458;28;20088;-70
2023/12/08 09:05:51;;;;;;;29.13;14.88;;;1.40;99.90;;;;;;5068344;28;20094;-71
2023/12/08 09:08:17;;;;;;;29.90;14.80;;;1.50;99.90;;;;;;5070628;28;20110;-72
2023/12/08 09:10:45;;;;;;;26.65;15.00;;;1.50;99.90;;;;;;5067151;28;20377;-71
2023/12/08 09:13:14;;;;;;;34.28;16.25;;;1.50;99.90;;;;;;5069331;28;20040;-71
2023/12/08 09:15:43;;;;;;;34.45;16.63;;;1.60;99.90;;;;;;5071276;28;20094;-71
2023/12/08 09:18:09;;;;;;;32.65;16.20;;;1.50;99.90;;;;;;5079385;28;20097;-71
2023/12/08 09:20:38;;;;;;;31.40;16.77;;;1.50;99.90;;;;;;5084466;28;20044;-71
2023/12/08 09:23:04;;;;;;;30.90;16.50;;;1.60;99.90;;;;;;5071251;28;20048;-72
2023/12/08 09:25:30;;;;;;;28.88;16.23;;;1.60;99.90;;;;;;5070678;28;20064;-71
2023/12/08 09:27:56;;;;;;;27.00;13.82;;;1.60;99.90;;;;;;5071190;28;20075;-71
2023/12/08 09:30:21;;;;;;;29.50;16.75;;;1.70;99.90;;;;;;5069610;28;20128;-72
2023/12/08 09:32:50;;;;;;;33.58;16.83;;;1.70;99.90;;;;;;5071615;28;20139;-72
2023/12/08 09:35:17;;;;;;;30.98;16.52;;;1.70;99.90;;;;;;5072481;28;20056;-71
2023/12/08 09:37:43;;;;;;;30.58;15.15;;;1.70;99.90;;;;;;5087532;28;20061;-71
2023/12/08 09:40:10;;;;;;;32.13;16.35;;;1.70;99.90;;;;;;5072783;28;20048;-71
2023/12/08 09:42:42;;;;;;;29.13;15.80;;;1.80;99.90;;;;;;5068554;28;20484;-71
2023/12/08 09:45:12;;;;;;;26.45;13.70;;;1.80;99.90;;;;;;5070944;28;20116;-71
2023/12/08 09:47:40;;;;;;;29.35;14.85;;;1.80;99.90;;;;;;5068874;28;20079;-70
2023/12/08 09:50:06;;;;;;;29.15;14.82;;;1.90;99.90;;;;;;5070315;28;20040;-71
2023/12/08 09:52:35;;;;;;;25.52;12.85;;;1.90;99.90;;;;;;5070489;28;20044;-71
2023/12/08 09:55:02;;;;;;;30.20;15.20;;;1.90;99.90;;;;;;5069977;28;20047;-71
2023/12/08 09:57:30;;;;;;;30.35;16.08;;;1.90;99.90;;;;;;5070390;28;20086;-71
2023/12/08 09:59:57;;;;;;;29.63;15.43;;;1.90;99.90;;;;;;5069585;28;20059;-71
2023/12/08 10:02:23;;;;;;;27.35;14.48;;;1.80;99.90;;;;;;5070603;28;20052;-71
2023/12/08 10:04:52;;;;;;;29.58;15.80;;;1.80;99.90;;;;;;5071830;28;20041;-69
2023/12/08 10:07:19;;;;;;;28.02;15.50;;;1.90;99.90;;;;;;5069472;28;20055;-70
2023/12/08 10:09:45;;;;;;;26.20;12.80;;;2.00;99.90;;;;;;5070513;28;20045;-70
2023/12/08 10:12:10;;;;;;;33.80;13.07;;;2.00;99.90;;;;;;5070089;28;20044;-70
2023/12/08 10:14:52;;;;;;;;;;;2.00;99.90;;;;;;5072485;28;20040;-70
2023/12/08 10:17:18;;;;;;;27.85;14.30;;;2.00;99.90;;;;;;5065958;28;19920;-76
2023/12/08 10:19:44;;;;;;;27.48;14.60;;;2.00;99.90;;;;;;5073426;28;20396;-76
2023/12/08 10:22:09;;;;;;;28.52;14.88;;;2.10;99.90;;;;;;5074029;28;20404;-70
2023/12/08 10:24:38;;;;;;;31.02;14.73;;;2.10;99.90;;;;;;5073219;28;20036;-72
2023/12/08 10:27:14;;;;;;;31.77;15.52;;;2.10;99.90;;;;;;5086926;28;20048;-72
2023/12/08 10:29:39;;;;;;;31.02;16.08;;;2.10;99.90;;;;;;5074799;28;20036;-75
2023/12/08 10:32:05;;;;;;;30.30;16.52;;;2.10;99.90;;;;;;5074151;28;20037;-73
2023/12/08 10:34:31;;;;;;;32.97;16.98;;;2.20;99.90;;;;;;5074993;28;20053;-73
2023/12/08 10:36:57;;;;;;;30.58;16.50;;;2.20;99.90;;;;;;5082269;28;20048;-74
2023/12/08 10:39:29;;;;;;;33.85;16.30;;;2.10;99.90;;;;;;5079338;28;20040;-72
2023/12/08 10:41:57;;;;;;;36.72;18.23;;;2.10;99.90;;;;;;5078410;28;20499;-73
2023/12/08 10:44:23;;;;;;;34.55;17.50;;;2.10;99.90;;;;;;5094910;28;20082;-77
2023/12/08 10:46:50;;;;;;;30.80;15.88;;;2.20;99.90;;;;;;5086073;28;20114;-71
2023/12/08 10:49:19;;;;;;;28.60;14.68;;;2.30;99.90;;;;;;5079946;28;20119;-71
2023/12/08 10:51:49;;;;;;;29.20;15.38;;;2.30;99.90;;;;;;5092985;28;20052;-70
2023/12/08 10:54:16;;;;;;;31.50;16.17;;;2.30;99.90;;;;;;5093880;28;20503;-70
2023/12/08 10:56:46;;;;;;;32.13;17.20;;;2.30;99.90;;;;;;5096253;28;20395;-70
2023/12/08 10:59:23;;;;;;;29.40;13.32;;;2.40;99.90;;;;;;5095207;28;20048;-70
2023/12/08 11:01:54;;;;;;;31.90;17.05;;;2.40;99.90;;;;;;5095605;28;20120;-70
2023/12/08 11:04:26;;;;;;;37.22;18.08;;;2.40;99.90;;;;;;5074229;28;20044;-70
2023/12/08 11:07:07;;;;;;;31.33;15.98;;;2.40;99.90;;;;;;5072398;28;20036;-70
2023/12/08 11:09:38;;;;;;;32.72;17.58;;;2.50;99.90;;;;;;5072763;28;20049;-70
2023/12/08 11:12:06;;;;;;;32.28;17.05;;;2.50;99.90;;;;;;5074717;28;20391;-71
2023/12/08 11:14:44;;;;;;;31.42;17.15;;;2.50;99.90;;;;;;5071626;28;20110;-71
2023/12/08 11:17:41;;;;;;;32.55;17.08;;;2.50;99.90;;;;;;5072097;28;20049;-70
2023/12/08 11:20:09;;;;;;;35.05;17.75;;;2.40;99.90;;;;;;5074424;28;20060;-70
2023/12/08 11:22:35;;;;;;;39.75;18.85;;;2.50;99.90;;;;;;5073991;28;20123;-70
2023/12/08 11:25:09;;;;;;;35.97;18.83;;;2.50;99.90;;;;;;5075600;28;20119;-71
2023/12/08 11:27:57;;;;;;;33.25;18.35;;;2.60;99.90;;;;;;5074194;28;20047;-71
2023/12/08 11:30:33;;;;;;;38.63;18.15;;;2.60;99.90;;;;;;5074531;28;20514;-71
2023/12/08 11:33:25;;;;;;;35.65;15.88;;;2.50;99.90;;;;;;5074271;28;20142;-71
2023/12/08 11:35:52;;;;;;;40.10;19.25;;;2.80;99.90;;;;;;5074543;28;20124;-71
2023/12/08 11:38:30;;;;;;;39.92;18.83;;;2.60;99.90;;;;;;5075039;28;20052;-71
2023/12/08 11:40:59;;;;;;;43.85;19.40;;;2.50;99.90;;;;;;5074236;28;20051;-71
2023/12/08 11:43:28;;;;;;;36.17;18.02;;;2.50;99.90;;;;;;5083144;28;20384;-71
2023/12/08 11:45:54;;;;;;;35.90;18.67;;;2.50;99.90;;;;;;5094247;28;20048;-71
2023/12/08 11:48:23;;;;;;;39.92;18.42;;;2.60;99.90;;;;;;5093986;28;20051;-71
2023/12/08 11:50:49;;;;;;;39.50;16.95;;;2.70;99.90;;;;;;5093411;28;20044;-71
2023/12/08 11:53:15;;;;;;;28.42;14.02;;;2.70;99.90;;;;;;5093275;28;20101;-71
2023/12/08 11:55:40;;;;;;;36.17;18.73;;;2.70;99.90;;;;;;5089306;28;20056;-71
2023/12/08 11:58:11;;;;;;;38.75;18.00;;;2.70;99.90;;;;;;5072889;28;20052;-71
2023/12/08 12:00:39;;;;;;;38.95;18.00;;;2.80;99.90;;;;;;5078548;28;20052;-71
2023/12/08 12:03:10;;;;;;;36.92;18.98;;;3.20;99.90;;;;;;5074639;28;20056;-71
2023/12/08 12:05:38;;;;;;;40.10;19.95;;;2.70;99.90;;;;;;5073080;28;20049;-71
2023/12/08 12:08:07;;;;;;;40.53;18.10;;;2.80;99.90;;;;;;5075668;28;20032;-71
2023/12/08 12:10:34;;;;;;;35.03;18.45;;;2.70;99.90;;;;;;5075466;28;20097;-71
2023/12/08 12:13:12;;;;;;;43.10;18.73;;;2.80;99.90;;;;;;5086013;28;20036;-71
2023/12/08 12:15:40;;;;;;;36.13;17.25;;;2.80;99.90;;;;;;5093805;28;20062;-71
2023/12/08 12:18:07;;;;;;;31.30;15.80;;;2.90;99.90;;;;;;5092337;28;20135;-71
2023/12/08 12:20:38;;;;;;;37.70;16.50;;;2.90;99.90;;;;;;5094928;28;20043;-71
2023/12/08 12:23:04;;;;;;;31.48;16.13;;;2.90;99.90;;;;;;5088098;28;20391;-69
2023/12/08 12:25:30;;;;;;;43.08;18.30;;;3.00;99.90;;;;;;5075652;28;20166;-72
2023/12/08 12:27:57;;;;;;;32.67;15.90;;;3.10;99.90;;;;;;5077075;28;20075;-71
2023/12/08 12:30:23;;;;;;;44.33;20.20;;;3.00;99.90;;;;;;5075171;28;20037;-69
2023/12/08 12:32:49;;;;;;;37.97;17.15;;;3.10;99.90;;;;;;5069016;28;20044;-71
2023/12/08 12:35:16;;;;;;;46.30;19.55;;;3.10;99.90;;;;;;5076500;28;20059;-71
2023/12/08 12:37:42;;;;;;;43.45;19.08;;;3.00;99.90;;;;;;5072439;28;20094;-71
2023/12/08 12:40:09;;;;;;;36.30;16.30;;;3.00;99.90;;;;;;5083911;28;20408;-70
2023/12/08 12:42:43;;;;;;;31.92;16.48;;;3.00;99.90;;;;;;5071508;28;20468;-68
2023/12/08 12:45:10;;;;;;;33.13;15.57;;;3.20;99.90;;;;;;5070871;28;20066;-69
2023/12/08 12:47:36;;;;;;;27.40;14.82;;;3.20;99.90;;;;;;5079066;28;20044;-70